sensor_id;sensor_type;location;lat;lon;timestamp;P1;durP1;ratioP1;P2;durP2;ratioP2
4311;SDS011;2169;49.086;9.284;2023-04-16T00:00:18;9.97;;;6.87;;
4311;SDS011;2169;49.086;9.284;2023-04-16T00:02:45;10.03;;;6.90;;
4311;SDS011;2169;49.086;9.284;2023-04-16T00:05:14;8.67;;;6.07;;
4311;SDS011;2169;49.086;9.284;2023-04-16T00:07:41;2.70;;;2.43;;
4311;SDS011;2169;49.086;9.284;2023-04-16T00:10:10;11.80;;;6.70;;
4311;SDS011;2169;49.086;9.284;2023-04-16T00:12:37;8.20;;;7.23;;
4311;SDS011;2169;49.086;9.284;2023-04-16T00:15:04;10.63;;;7.30;;
4311;SDS011;2169;49.086;9.284;2023-04-16T00:17:32;9.50;;;6.87;;
4311;SDS011;2169;49.086;9.284;2023-04-16T00:19:59;12.97;;;7.27;;
4311;SDS011;2169;49.086;9.284;2023-04-16T00:22:27;13.13;;;7.50;;
4311;SDS011;2169;49.086;9.284;2023-04-16T00:24:55;7.20;;;5.07;;
4311;SDS011;2169;49.086;9.284;2023-04-16T00:27:22;11.33;;;7.07;;
4311;SDS011;2169;49.086;9.284;2023-04-16T00:29:48;12.63;;;6.30;;
4311;SDS011;2169;49.086;9.284;2023-04-16T00:32:15;8.40;;;6.20;;
4311;SDS011;2169;49.086;9.284;2023-04-16T00:34:42;12.23;;;6.97;;
4311;SDS011;2169;49.086;9.284;2023-04-16T00:37:09;12.27;;;7.40;;
4311;SDS011;2169;49.086;9.284;2023-04-16T00:39:38;10.87;;;6.00;;
4311;SDS011;2169;49.086;9.284;2023-04-16T00:42:04;9.63;;;5.20;;
4311;SDS011;2169;49.086;9.284;2023-04-16T00:44:31;9.53;;;5.40;;
4311;SDS011;2169;49.086;9.284;2023-04-16T00:47:00;10.20;;;6.67;;
4311;SDS011;2169;49.086;9.284;2023-04-16T00:49:28;11.17;;;6.57;;
4311;SDS011;2169;49.086;9.284;2023-04-16T00:51:56;10.77;;;6.10;;
4311;SDS011;2169;49.086;9.284;2023-04-16T00:54:23;11.23;;;6.73;;
4311;SDS011;2169;49.086;9.284;2023-04-16T00:56:52;6.93;;;5.27;;
4311;SDS011;2169;49.086;9.284;2023-04-16T00:59:20;11.03;;;6.83;;
4311;SDS011;2169;49.086;9.284;2023-04-16T01:01:47;7.30;;;4.60;;
4311;SDS011;2169;49.086;9.284;2023-04-16T01:04:15;12.83;;;6.00;;
4311;SDS011;2169;49.086;9.284;2023-04-16T01:06:43;11.80;;;5.60;;
4311;SDS011;2169;49.086;9.284;2023-04-16T01:09:10;6.90;;;4.90;;
4311;SDS011;2169;49.086;9.284;2023-04-16T01:11:38;4.93;;;4.53;;
4311;SDS011;2169;49.086;9.284;2023-04-16T01:14:07;5.40;;;4.90;;
4311;SDS011;2169;49.086;9.284;2023-04-16T01:16:34;4.53;;;4.17;;
4311;SDS011;2169;49.086;9.284;2023-04-16T01:19:01;6.93;;;4.70;;
4311;SDS011;2169;49.086;9.284;2023-04-16T01:21:30;6.30;;;5.30;;
4311;SDS011;2169;49.086;9.284;2023-04-16T01:23:57;5.00;;;4.07;;
4311;SDS011;2169;49.086;9.284;2023-04-16T01:26:27;6.43;;;4.47;;
4311;SDS011;2169;49.086;9.284;2023-04-16T01:28:54;6.67;;;5.40;;
4311;SDS011;2169;49.086;9.284;2023-04-16T01:31:21;7.00;;;5.43;;
4311;SDS011;2169;49.086;9.284;2023-04-16T01:33:48;7.73;;;5.40;;
4311;SDS011;2169;49.086;9.284;2023-04-16T01:36:15;5.73;;;4.80;;
4311;SDS011;2169;49.086;9.284;2023-04-16T01:38:44;5.77;;;4.13;;
4311;SDS011;2169;49.086;9.284;2023-04-16T01:41:11;6.57;;;5.87;;
4311;SDS011;2169;49.086;9.284;2023-04-16T01:43:38;6.50;;;5.17;;
4311;SDS011;2169;49.086;9.284;2023-04-16T01:46:13;6.53;;;5.93;;
4311;SDS011;2169;49.086;9.284;2023-04-16T01:48:43;5.53;;;4.43;;
4311;SDS011;2169;49.086;9.284;2023-04-16T01:51:10;6.27;;;5.03;;
4311;SDS011;2169;49.086;9.284;2023-04-16T01:53:38;7.23;;;3.93;;
4311;SDS011;2169;49.086;9.284;2023-04-16T01:56:07;4.80;;;3.47;;
4311;SDS011;2169;49.086;9.284;2023-04-16T01:58:34;4.90;;;4.40;;
4311;SDS011;2169;49.086;9.284;2023-04-16T02:01:01;4.97;;;4.40;;
4311;SDS011;2169;49.086;9.284;2023-04-16T02:03:29;7.43;;;4.73;;
4311;SDS011;2169;49.086;9.284;2023-04-16T02:05:56;4.73;;;4.20;;
4311;SDS011;2169;49.086;9.284;2023-04-16T02:08:23;4.77;;;4.27;;
4311;SDS011;2169;49.086;9.284;2023-04-16T02:10:50;5.20;;;4.43;;
4311;SDS011;2169;49.086;9.284;2023-04-16T02:13:18;4.77;;;4.10;;
4311;SDS011;2169;49.086;9.284;2023-04-16T02:15:46;5.57;;;3.30;;
4311;SDS011;2169;49.086;9.284;2023-04-16T02:18:14;7.07;;;4.93;;
4311;SDS011;2169;49.086;9.284;2023-04-16T02:20:42;5.63;;;4.50;;
4311;SDS011;2169;49.086;9.284;2023-04-16T02:23:11;6.57;;;4.03;;
4311;SDS011;2169;49.086;9.284;2023-04-16T02:25:39;3.50;;;3.20;;
4311;SDS011;2169;49.086;9.284;2023-04-16T02:28:07;5.47;;;4.67;;
4311;SDS011;2169;49.086;9.284;2023-04-16T02:30:36;4.67;;;4.27;;
4311;SDS011;2169;49.086;9.284;2023-04-16T02:33:04;6.10;;;4.10;;
4311;SDS011;2169;49.086;9.284;2023-04-16T02:35:32;6.47;;;4.90;;
4311;SDS011;2169;49.086;9.284;2023-04-16T02:37:59;7.70;;;4.70;;
4311;SDS011;2169;49.086;9.284;2023-04-16T02:40:26;6.00;;;3.57;;
4311;SDS011;2169;49.086;9.284;2023-04-16T02:42:53;6.97;;;4.67;;
4311;SDS011;2169;49.086;9.284;2023-04-16T02:45:20;8.87;;;5.00;;
4311;SDS011;2169;49.086;9.284;2023-04-16T02:47:49;5.87;;;3.57;;
4311;SDS011;2169;49.086;9.284;2023-04-16T02:50:16;7.53;;;5.20;;
4311;SDS011;2169;49.086;9.284;2023-04-16T02:52:43;7.83;;;6.03;;
4311;SDS011;2169;49.086;9.284;2023-04-16T02:55:10;5.47;;;4.23;;
4311;SDS011;2169;49.086;9.284;2023-04-16T02:57:37;5.43;;;4.33;;
4311;SDS011;2169;49.086;9.284;2023-04-16T03:00:05;6.47;;;4.50;;
4311;SDS011;2169;49.086;9.284;2023-04-16T03:02:33;6.23;;;5.63;;
4311;SDS011;2169;49.086;9.284;2023-04-16T03:05:01;6.70;;;4.67;;
4311;SDS011;2169;49.086;9.284;2023-04-16T03:07:28;4.57;;;3.50;;
4311;SDS011;2169;49.086;9.284;2023-04-16T03:09:55;10.30;;;5.03;;
4311;SDS011;2169;49.086;9.284;2023-04-16T03:12:22;8.73;;;5.30;;
4311;SDS011;2169;49.086;9.284;2023-04-16T03:14:51;8.53;;;5.47;;
4311;SDS011;2169;49.086;9.284;2023-04-16T03:17:17;4.63;;;4.17;;
4311;SDS011;2169;49.086;9.284;2023-04-16T03:19:44;9.17;;;5.80;;
4311;SDS011;2169;49.086;9.284;2023-04-16T03:22:13;10.43;;;5.90;;
4311;SDS011;2169;49.086;9.284;2023-04-16T03:24:40;8.83;;;7.00;;
4311;SDS011;2169;49.086;9.284;2023-04-16T03:27:07;5.67;;;4.67;;
4311;SDS011;2169;49.086;9.284;2023-04-16T03:29:35;9.03;;;5.40;;
4311;SDS011;2169;49.086;9.284;2023-04-16T03:32:02;6.03;;;4.67;;
4311;SDS011;2169;49.086;9.284;2023-04-16T03:34:29;9.60;;;6.23;;
4311;SDS011;2169;49.086;9.284;2023-04-16T03:36:56;8.87;;;6.00;;
4311;SDS011;2169;49.086;9.284;2023-04-16T03:39:24;8.23;;;5.60;;
4311;SDS011;2169;49.086;9.284;2023-04-16T03:41:51;4.90;;;4.50;;
4311;SDS011;2169;49.086;9.284;2023-04-16T03:44:18;13.60;;;7.30;;
4311;SDS011;2169;49.086;9.284;2023-04-16T03:46:44;9.97;;;6.00;;
4311;SDS011;2169;49.086;9.284;2023-04-16T03:49:11;8.60;;;6.40;;
4311;SDS011;2169;49.086;9.284;2023-04-16T03:51:38;9.77;;;6.50;;
4311;SDS011;2169;49.086;9.284;2023-04-16T03:54:05;9.27;;;6.40;;
4311;SDS011;2169;49.086;9.284;2023-04-16T03:56:33;12.10;;;6.90;;
4311;SDS011;2169;49.086;9.284;2023-04-16T03:59:00;7.60;;;6.40;;
4311;SDS011;2169;49.086;9.284;2023-04-16T04:01:27;15.50;;;8.03;;
4311;SDS011;2169;49.086;9.284;2023-04-16T04:03:54;9.67;;;8.23;;
4311;SDS011;2169;49.086;9.284;2023-04-16T04:06:21;12.43;;;7.90;;
4311;SDS011;2169;49.086;9.284;2023-04-16T04:08:48;13.93;;;8.20;;
4311;SDS011;2169;49.086;9.284;2023-04-16T04:11:15;11.87;;;7.37;;
4311;SDS011;2169;49.086;9.284;2023-04-16T04:13:44;14.33;;;6.63;;
4311;SDS011;2169;49.086;9.284;2023-04-16T04:16:11;14.43;;;8.37;;
4311;SDS011;2169;49.086;9.284;2023-04-16T04:18:38;10.27;;;6.00;;
4311;SDS011;2169;49.086;9.284;2023-04-16T04:21:05;12.50;;;6.50;;
4311;SDS011;2169;49.086;9.284;2023-04-16T04:23:32;9.93;;;7.00;;
4311;SDS011;2169;49.086;9.284;2023-04-16T04:26:00;16.10;;;7.37;;
4311;SDS011;2169;49.086;9.284;2023-04-16T04:28:29;10.43;;;6.43;;
4311;SDS011;2169;49.086;9.284;2023-04-16T04:30:57;15.87;;;7.23;;
4311;SDS011;2169;49.086;9.284;2023-04-16T04:33:25;10.07;;;6.30;;
4311;SDS011;2169;49.086;9.284;2023-04-16T04:35:52;16.47;;;7.10;;
4311;SDS011;2169;49.086;9.284;2023-04-16T04:38:21;18.03;;;7.97;;
4311;SDS011;2169;49.086;9.284;2023-04-16T04:40:49;13.87;;;7.97;;
4311;SDS011;2169;49.086;9.284;2023-04-16T04:43:16;10.60;;;7.43;;
4311;SDS011;2169;49.086;9.284;2023-04-16T04:45:43;12.80;;;7.10;;
4311;SDS011;2169;49.086;9.284;2023-04-16T04:48:12;10.80;;;7.53;;
4311;SDS011;2169;49.086;9.284;2023-04-16T04:50:39;16.20;;;6.70;;
4311;SDS011;2169;49.086;9.284;2023-04-16T04:53:08;17.87;;;9.70;;
4311;SDS011;2169;49.086;9.284;2023-04-16T04:55:35;11.00;;;6.70;;
4311;SDS011;2169;49.086;9.284;2023-04-16T04:58:02;9.70;;;5.27;;
4311;SDS011;2169;49.086;9.284;2023-04-16T05:00:30;9.03;;;5.73;;
4311;SDS011;2169;49.086;9.284;2023-04-16T05:02:56;6.73;;;5.30;;
4311;SDS011;2169;49.086;9.284;2023-04-16T05:05:25;11.90;;;7.07;;
4311;SDS011;2169;49.086;9.284;2023-04-16T05:07:52;10.83;;;6.07;;
4311;SDS011;2169;49.086;9.284;2023-04-16T05:10:20;10.23;;;5.77;;
4311;SDS011;2169;49.086;9.284;2023-04-16T05:12:47;8.47;;;5.60;;
4311;SDS011;2169;49.086;9.284;2023-04-16T05:15:14;11.60;;;7.00;;
4311;SDS011;2169;49.086;9.284;2023-04-16T05:17:40;11.17;;;6.70;;
4311;SDS011;2169;49.086;9.284;2023-04-16T05:20:07;9.53;;;6.07;;
4311;SDS011;2169;49.086;9.284;2023-04-16T05:22:37;19.53;;;6.43;;
4311;SDS011;2169;49.086;9.284;2023-04-16T05:25:04;10.97;;;8.17;;
4311;SDS011;2169;49.086;9.284;2023-04-16T05:27:31;13.50;;;6.50;;
4311;SDS011;2169;49.086;9.284;2023-04-16T05:29:58;12.33;;;5.90;;
4311;SDS011;2169;49.086;9.284;2023-04-16T05:32:25;13.47;;;7.20;;
4311;SDS011;2169;49.086;9.284;2023-04-16T05:34:52;16.57;;;7.57;;
4311;SDS011;2169;49.086;9.284;2023-04-16T05:37:19;10.90;;;7.80;;
4311;SDS011;2169;49.086;9.284;2023-04-16T05:39:47;10.53;;;7.23;;
4311;SDS011;2169;49.086;9.284;2023-04-16T05:42:14;13.17;;;7.30;;
4311;SDS011;2169;49.086;9.284;2023-04-16T05:44:41;9.00;;;5.40;;
4311;SDS011;2169;49.086;9.284;2023-04-16T05:47:08;18.20;;;8.10;;
4311;SDS011;2169;49.086;9.284;2023-04-16T05:49:35;13.40;;;7.00;;
4311;SDS011;2169;49.086;9.284;2023-04-16T05:52:02;12.50;;;9.40;;
4311;SDS011;2169;49.086;9.284;2023-04-16T05:54:29;13.57;;;7.93;;
4311;SDS011;2169;49.086;9.284;2023-04-16T05:56:58;13.30;;;8.83;;
4311;SDS011;2169;49.086;9.284;2023-04-16T05:59:25;15.23;;;7.90;;
4311;SDS011;2169;49.086;9.284;2023-04-16T06:01:54;15.30;;;7.53;;
4311;SDS011;2169;49.086;9.284;2023-04-16T06:04:22;15.60;;;8.90;;
4311;SDS011;2169;49.086;9.284;2023-04-16T06:06:49;16.13;;;10.47;;
4311;SDS011;2169;49.086;9.284;2023-04-16T06:09:16;12.53;;;7.80;;
4311;SDS011;2169;49.086;9.284;2023-04-16T06:11:43;12.67;;;8.37;;
4311;SDS011;2169;49.086;9.284;2023-04-16T06:14:12;14.37;;;8.77;;
4311;SDS011;2169;49.086;9.284;2023-04-16T06:16:39;19.07;;;10.13;;
4311;SDS011;2169;49.086;9.284;2023-04-16T06:19:06;27.60;;;11.37;;
4311;SDS011;2169;49.086;9.284;2023-04-16T06:21:33;19.27;;;10.97;;
4311;SDS011;2169;49.086;9.284;2023-04-16T06:24:01;17.90;;;7.00;;
4311;SDS011;2169;49.086;9.284;2023-04-16T06:26:28;20.10;;;9.50;;
4311;SDS011;2169;49.086;9.284;2023-04-16T06:28:55;14.80;;;9.53;;
4311;SDS011;2169;49.086;9.284;2023-04-16T06:31:24;12.23;;;7.97;;
4311;SDS011;2169;49.086;9.284;2023-04-16T06:33:51;13.70;;;7.40;;
4311;SDS011;2169;49.086;9.284;2023-04-16T06:36:19;16.90;;;8.40;;
4311;SDS011;2169;49.086;9.284;2023-04-16T06:38:45;18.13;;;10.13;;
4311;SDS011;2169;49.086;9.284;2023-04-16T06:41:12;14.63;;;9.63;;
4311;SDS011;2169;49.086;9.284;2023-04-16T06:43:40;19.90;;;10.37;;
4311;SDS011;2169;49.086;9.284;2023-04-16T06:46:06;16.70;;;8.67;;
4311;SDS011;2169;49.086;9.284;2023-04-16T06:48:35;12.60;;;8.07;;
4311;SDS011;2169;49.086;9.284;2023-04-16T06:51:02;14.67;;;10.70;;
4311;SDS011;2169;49.086;9.284;2023-04-16T06:53:29;13.80;;;7.97;;
4311;SDS011;2169;49.086;9.284;2023-04-16T06:55:56;13.20;;;8.63;;
4311;SDS011;2169;49.086;9.284;2023-04-16T06:58:23;12.87;;;7.87;;
4311;SDS011;2169;49.086;9.284;2023-04-16T07:00:51;17.97;;;10.47;;
4311;SDS011;2169;49.086;9.284;2023-04-16T07:03:18;14.43;;;8.60;;
4311;SDS011;2169;49.086;9.284;2023-04-16T07:05:46;16.83;;;10.10;;
4311;SDS011;2169;49.086;9.284;2023-04-16T07:08:13;16.17;;;9.77;;
4311;SDS011;2169;49.086;9.284;2023-04-16T07:10:40;18.00;;;9.43;;
4311;SDS011;2169;49.086;9.284;2023-04-16T07:13:07;19.43;;;9.13;;
4311;SDS011;2169;49.086;9.284;2023-04-16T07:15:34;17.50;;;9.93;;
4311;SDS011;2169;49.086;9.284;2023-04-16T07:18:02;22.60;;;10.40;;
4311;SDS011;2169;49.086;9.284;2023-04-16T07:20:29;14.93;;;8.70;;
4311;SDS011;2169;49.086;9.284;2023-04-16T07:22:57;17.10;;;10.73;;
4311;SDS011;2169;49.086;9.284;2023-04-16T07:25:25;14.87;;;8.67;;
4311;SDS011;2169;49.086;9.284;2023-04-16T07:27:52;21.00;;;10.40;;
4311;SDS011;2169;49.086;9.284;2023-04-16T07:30:19;17.93;;;10.30;;
4311;SDS011;2169;49.086;9.284;2023-04-16T07:32:46;14.03;;;9.13;;
4311;SDS011;2169;49.086;9.284;2023-04-16T07:35:12;14.23;;;8.30;;
4311;SDS011;2169;49.086;9.284;2023-04-16T07:37:39;10.57;;;8.07;;
4311;SDS011;2169;49.086;9.284;2023-04-16T07:40:10;12.53;;;8.57;;
4311;SDS011;2169;49.086;9.284;2023-04-16T07:42:37;19.20;;;10.47;;
4311;SDS011;2169;49.086;9.284;2023-04-16T07:45:05;18.50;;;8.63;;
4311;SDS011;2169;49.086;9.284;2023-04-16T07:47:33;18.83;;;8.77;;
4311;SDS011;2169;49.086;9.284;2023-04-16T07:50:00;14.10;;;8.37;;
4311;SDS011;2169;49.086;9.284;2023-04-16T07:52:27;14.67;;;9.03;;
4311;SDS011;2169;49.086;9.284;2023-04-16T07:54:55;15.67;;;9.37;;
4311;SDS011;2169;49.086;9.284;2023-04-16T07:57:23;12.77;;;8.60;;
4311;SDS011;2169;49.086;9.284;2023-04-16T07:59:50;24.30;;;8.97;;
4311;SDS011;2169;49.086;9.284;2023-04-16T08:02:17;14.60;;;9.27;;
4311;SDS011;2169;49.086;9.284;2023-04-16T08:04:44;14.80;;;10.73;;
4311;SDS011;2169;49.086;9.284;2023-04-16T08:07:11;12.80;;;8.17;;
4311;SDS011;2169;49.086;9.284;2023-04-16T08:09:45;19.20;;;8.90;;
4311;SDS011;2169;49.086;9.284;2023-04-16T08:12:14;17.03;;;8.80;;
4311;SDS011;2169;49.086;9.284;2023-04-16T08:14:43;14.20;;;8.43;;
4311;SDS011;2169;49.086;9.284;2023-04-16T08:17:10;11.53;;;7.97;;
4311;SDS011;2169;49.086;9.284;2023-04-16T08:19:37;14.60;;;9.20;;
4311;SDS011;2169;49.086;9.284;2023-04-16T08:22:04;12.53;;;7.20;;
4311;SDS011;2169;49.086;9.284;2023-04-16T08:24:31;13.83;;;8.10;;
4311;SDS011;2169;49.086;9.284;2023-04-16T08:26:58;17.87;;;9.67;;
4311;SDS011;2169;49.086;9.284;2023-04-16T08:29:26;15.37;;;10.30;;
4311;SDS011;2169;49.086;9.284;2023-04-16T08:31:54;17.50;;;10.30;;
4311;SDS011;2169;49.086;9.284;2023-04-16T08:34:21;11.70;;;6.97;;
4311;SDS011;2169;49.086;9.284;2023-04-16T08:36:48;12.40;;;7.63;;
4311;SDS011;2169;49.086;9.284;2023-04-16T08:39:15;17.30;;;8.20;;
4311;SDS011;2169;49.086;9.284;2023-04-16T08:41:42;11.20;;;7.47;;
4311;SDS011;2169;49.086;9.284;2023-04-16T08:44:13;14.83;;;8.37;;
4311;SDS011;2169;49.086;9.284;2023-04-16T08:46:45;14.10;;;8.93;;
4311;SDS011;2169;49.086;9.284;2023-04-16T08:49:16;7.30;;;5.93;;
4311;SDS011;2169;49.086;9.284;2023-04-16T08:51:44;17.27;;;8.13;;
4311;SDS011;2169;49.086;9.284;2023-04-16T08:54:19;18.93;;;9.93;;
4311;SDS011;2169;49.086;9.284;2023-04-16T08:56:53;15.13;;;8.00;;
4311;SDS011;2169;49.086;9.284;2023-04-16T08:59:23;13.07;;;8.50;;
4311;SDS011;2169;49.086;9.284;2023-04-16T09:01:50;12.50;;;8.20;;
4311;SDS011;2169;49.086;9.284;2023-04-16T09:04:20;14.27;;;8.87;;
4311;SDS011;2169;49.086;9.284;2023-04-16T09:06:49;14.37;;;8.67;;
4311;SDS011;2169;49.086;9.284;2023-04-16T09:09:17;10.50;;;6.70;;
4311;SDS011;2169;49.086;9.284;2023-04-16T09:11:47;7.90;;;5.60;;
4311;SDS011;2169;49.086;9.284;2023-04-16T09:14:16;12.37;;;5.90;;
4311;SDS011;2169;49.086;9.284;2023-04-16T09:16:43;10.00;;;7.30;;
4311;SDS011;2169;49.086;9.284;2023-04-16T09:19:11;15.03;;;7.60;;
4311;SDS011;2169;49.086;9.284;2023-04-16T09:21:44;10.67;;;7.30;;
4311;SDS011;2169;49.086;9.284;2023-04-16T09:24:12;12.30;;;8.57;;
4311;SDS011;2169;49.086;9.284;2023-04-16T09:26:41;12.50;;;9.17;;
4311;SDS011;2169;49.086;9.284;2023-04-16T09:29:08;13.27;;;6.90;;
4311;SDS011;2169;49.086;9.284;2023-04-16T09:31:36;10.77;;;7.20;;
4311;SDS011;2169;49.086;9.284;2023-04-16T09:34:04;16.47;;;9.53;;
4311;SDS011;2169;49.086;9.284;2023-04-16T09:36:32;11.10;;;6.87;;
4311;SDS011;2169;49.086;9.284;2023-04-16T09:39:01;13.67;;;7.67;;
4311;SDS011;2169;49.086;9.284;2023-04-16T09:41:29;11.30;;;8.03;;
4311;SDS011;2169;49.086;9.284;2023-04-16T09:43:57;14.40;;;7.60;;
4311;SDS011;2169;49.086;9.284;2023-04-16T09:46:28;10.00;;;7.60;;
4311;SDS011;2169;49.086;9.284;2023-04-16T09:48:55;21.20;;;7.70;;
4311;SDS011;2169;49.086;9.284;2023-04-16T09:51:22;14.13;;;8.73;;
4311;SDS011;2169;49.086;9.284;2023-04-16T09:53:51;16.97;;;9.27;;
4311;SDS011;2169;49.086;9.284;2023-04-16T09:56:20;14.97;;;8.23;;
4311;SDS011;2169;49.086;9.284;2023-04-16T09:58:49;14.93;;;8.80;;
4311;SDS011;2169;49.086;9.284;2023-04-16T10:01:18;14.80;;;7.63;;
4311;SDS011;2169;49.086;9.284;2023-04-16T10:03:47;15.73;;;7.87;;
4311;SDS011;2169;49.086;9.284;2023-04-16T10:06:15;12.77;;;7.83;;
4311;SDS011;2169;49.086;9.284;2023-04-16T10:08:43;13.20;;;7.50;;
4311;SDS011;2169;49.086;9.284;2023-04-16T10:11:12;13.93;;;8.00;;
4311;SDS011;2169;49.086;9.284;2023-04-16T10:13:41;18.97;;;10.10;;
4311;SDS011;2169;49.086;9.284;2023-04-16T10:16:09;14.10;;;8.07;;
4311;SDS011;2169;49.086;9.284;2023-04-16T10:18:38;15.70;;;8.80;;
4311;SDS011;2169;49.086;9.284;2023-04-16T10:21:07;11.60;;;7.37;;
4311;SDS011;2169;49.086;9.284;2023-04-16T10:23:35;13.73;;;7.70;;
4311;SDS011;2169;49.086;9.284;2023-04-16T10:26:04;17.37;;;9.60;;
4311;SDS011;2169;49.086;9.284;2023-04-16T10:28:31;15.33;;;7.47;;
4311;SDS011;2169;49.086;9.284;2023-04-16T10:31:01;17.87;;;9.03;;
4311;SDS011;2169;49.086;9.284;2023-04-16T10:33:30;14.40;;;8.20;;
4311;SDS011;2169;49.086;9.284;2023-04-16T10:36:08;15.57;;;7.80;;
4311;SDS011;2169;49.086;9.284;2023-04-16T10:38:39;20.43;;;8.00;;
4311;SDS011;2169;49.086;9.284;2023-04-16T10:41:08;14.20;;;7.90;;
4311;SDS011;2169;49.086;9.284;2023-04-16T10:43:38;24.20;;;9.30;;
4311;SDS011;2169;49.086;9.284;2023-04-16T10:46:21;15.33;;;9.40;;
4311;SDS011;2169;49.086;9.284;2023-04-16T10:48:49;19.87;;;9.23;;
4311;SDS011;2169;49.086;9.284;2023-04-16T10:51:23;19.63;;;9.63;;
4311;SDS011;2169;49.086;9.284;2023-04-16T10:53:53;12.50;;;9.73;;
4311;SDS011;2169;49.086;9.284;2023-04-16T10:56:24;17.97;;;9.00;;
4311;SDS011;2169;49.086;9.284;2023-04-16T10:58:52;16.90;;;8.63;;
4311;SDS011;2169;49.086;9.284;2023-04-16T11:01:32;15.07;;;9.00;;
4311;SDS011;2169;49.086;9.284;2023-04-16T11:04:00;19.20;;;10.87;;
4311;SDS011;2169;49.086;9.284;2023-04-16T11:07:02;19.67;;;9.67;;
4311;SDS011;2169;49.086;9.284;2023-04-16T11:12:32;13.77;;;6.47;;
4311;SDS011;2169;49.086;9.284;2023-04-16T11:15:01;14.10;;;8.60;;
4311;SDS011;2169;49.086;9.284;2023-04-16T11:17:32;19.73;;;7.03;;
4311;SDS011;2169;49.086;9.284;2023-04-16T11:20:02;13.03;;;7.33;;
4311;SDS011;2169;49.086;9.284;2023-04-16T11:22:33;16.00;;;8.87;;
4311;SDS011;2169;49.086;9.284;2023-04-16T11:25:00;14.33;;;6.70;;
4311;SDS011;2169;49.086;9.284;2023-04-16T11:27:28;13.13;;;7.43;;
4311;SDS011;2169;49.086;9.284;2023-04-16T11:29:58;16.03;;;7.57;;
4311;SDS011;2169;49.086;9.284;2023-04-16T11:32:25;13.47;;;6.33;;
4311;SDS011;2169;49.086;9.284;2023-04-16T11:34:54;9.47;;;5.30;;
4311;SDS011;2169;49.086;9.284;2023-04-16T11:37:22;9.73;;;5.93;;
4311;SDS011;2169;49.086;9.284;2023-04-16T11:39:58;12.00;;;6.10;;
4311;SDS011;2169;49.086;9.284;2023-04-16T11:42:25;9.83;;;6.57;;
4311;SDS011;2169;49.086;9.284;2023-04-16T11:44:53;9.47;;;5.70;;
4311;SDS011;2169;49.086;9.284;2023-04-16T11:47:21;8.07;;;5.80;;
4311;SDS011;2169;49.086;9.284;2023-04-16T11:49:48;4.60;;;4.13;;
4311;SDS011;2169;49.086;9.284;2023-04-16T11:52:27;6.23;;;3.43;;
4311;SDS011;2169;49.086;9.284;2023-04-16T11:54:56;7.77;;;4.37;;
4311;SDS011;2169;49.086;9.284;2023-04-16T11:57:24;11.13;;;5.20;;
4311;SDS011;2169;49.086;9.284;2023-04-16T11:59:52;2.97;;;2.77;;
4311;SDS011;2169;49.086;9.284;2023-04-16T12:02:32;7.60;;;3.33;;
4311;SDS011;2169;49.086;9.284;2023-04-16T12:05:01;4.03;;;3.27;;
4311;SDS011;2169;49.086;9.284;2023-04-16T12:07:30;11.17;;;4.53;;
4311;SDS011;2169;49.086;9.284;2023-04-16T12:10:04;4.50;;;3.23;;
4311;SDS011;2169;49.086;9.284;2023-04-16T12:12:32;5.57;;;3.70;;
4311;SDS011;2169;49.086;9.284;2023-04-16T12:14:59;4.50;;;3.37;;
4311;SDS011;2169;49.086;9.284;2023-04-16T12:17:28;4.50;;;3.80;;
4311;SDS011;2169;49.086;9.284;2023-04-16T12:19:58;7.37;;;3.60;;
4311;SDS011;2169;49.086;9.284;2023-04-16T12:22:27;5.20;;;3.30;;
4311;SDS011;2169;49.086;9.284;2023-04-16T12:24:56;6.43;;;3.50;;
4311;SDS011;2169;49.086;9.284;2023-04-16T12:27:24;4.20;;;3.80;;
4311;SDS011;2169;49.086;9.284;2023-04-16T12:30:02;9.70;;;4.43;;
4311;SDS011;2169;49.086;9.284;2023-04-16T12:32:31;3.27;;;2.77;;
4311;SDS011;2169;49.086;9.284;2023-04-16T12:34:58;3.27;;;2.97;;
4311;SDS011;2169;49.086;9.284;2023-04-16T12:37:25;2.20;;;2.00;;
4311;SDS011;2169;49.086;9.284;2023-04-16T12:39:52;3.47;;;3.17;;
4311;SDS011;2169;49.086;9.284;2023-04-16T12:42:20;2.93;;;2.73;;
4311;SDS011;2169;49.086;9.284;2023-04-16T12:44:48;5.47;;;3.90;;
4311;SDS011;2169;49.086;9.284;2023-04-16T12:47:15;5.20;;;3.27;;
4311;SDS011;2169;49.086;9.284;2023-04-16T12:49:42;3.87;;;3.53;;
4311;SDS011;2169;49.086;9.284;2023-04-16T12:52:09;3.40;;;2.93;;
4311;SDS011;2169;49.086;9.284;2023-04-16T12:54:37;5.13;;;3.43;;
4311;SDS011;2169;49.086;9.284;2023-04-16T12:57:04;5.73;;;4.30;;
4311;SDS011;2169;49.086;9.284;2023-04-16T12:59:32;5.23;;;3.10;;
4311;SDS011;2169;49.086;9.284;2023-04-16T13:01:59;8.33;;;5.40;;
4311;SDS011;2169;49.086;9.284;2023-04-16T13:04:27;3.90;;;3.53;;
4311;SDS011;2169;49.086;9.284;2023-04-16T13:06:54;3.57;;;2.73;;
4311;SDS011;2169;49.086;9.284;2023-04-16T13:09:20;4.70;;;4.30;;
4311;SDS011;2169;49.086;9.284;2023-04-16T13:11:47;6.17;;;5.27;;
4311;SDS011;2169;49.086;9.284;2023-04-16T13:14:14;10.90;;;5.23;;
4311;SDS011;2169;49.086;9.284;2023-04-16T13:16:43;10.10;;;5.43;;
4311;SDS011;2169;49.086;9.284;2023-04-16T13:19:10;11.10;;;6.70;;
4311;SDS011;2169;49.086;9.284;2023-04-16T13:21:37;8.93;;;5.50;;
4311;SDS011;2169;49.086;9.284;2023-04-16T13:24:04;5.07;;;4.20;;
4311;SDS011;2169;49.086;9.284;2023-04-16T13:26:32;5.30;;;4.60;;
4311;SDS011;2169;49.086;9.284;2023-04-16T13:28:58;6.10;;;4.53;;
4311;SDS011;2169;49.086;9.284;2023-04-16T13:31:25;5.17;;;4.77;;
4311;SDS011;2169;49.086;9.284;2023-04-16T13:33:54;7.67;;;5.70;;
4311;SDS011;2169;49.086;9.284;2023-04-16T13:36:20;7.03;;;4.83;;
4311;SDS011;2169;49.086;9.284;2023-04-16T13:38:47;3.93;;;3.63;;
4311;SDS011;2169;49.086;9.284;2023-04-16T13:41:14;10.73;;;4.90;;
4311;SDS011;2169;49.086;9.284;2023-04-16T13:43:43;9.17;;;5.20;;
4311;SDS011;2169;49.086;9.284;2023-04-16T13:46:10;5.13;;;3.77;;
4311;SDS011;2169;49.086;9.284;2023-04-16T13:48:39;7.83;;;4.80;;
4311;SDS011;2169;49.086;9.284;2023-04-16T13:51:08;4.83;;;4.43;;
4311;SDS011;2169;49.086;9.284;2023-04-16T13:53:34;11.63;;;6.43;;
4311;SDS011;2169;49.086;9.284;2023-04-16T13:56:01;8.67;;;6.40;;
4311;SDS011;2169;49.086;9.284;2023-04-16T13:58:29;12.20;;;6.00;;
4311;SDS011;2169;49.086;9.284;2023-04-16T14:00:56;7.97;;;5.53;;
4311;SDS011;2169;49.086;9.284;2023-04-16T14:03:23;7.10;;;4.97;;
4311;SDS011;2169;49.086;9.284;2023-04-16T14:05:50;9.00;;;6.13;;
4311;SDS011;2169;49.086;9.284;2023-04-16T14:08:19;9.80;;;5.90;;
4311;SDS011;2169;49.086;9.284;2023-04-16T14:10:46;11.87;;;7.17;;
4311;SDS011;2169;49.086;9.284;2023-04-16T14:13:13;7.70;;;5.47;;
4311;SDS011;2169;49.086;9.284;2023-04-16T14:15:40;10.63;;;6.13;;
4311;SDS011;2169;49.086;9.284;2023-04-16T14:18:08;11.47;;;5.87;;
4311;SDS011;2169;49.086;9.284;2023-04-16T14:20:35;13.67;;;5.83;;
4311;SDS011;2169;49.086;9.284;2023-04-16T14:23:03;12.27;;;6.20;;
4311;SDS011;2169;49.086;9.284;2023-04-16T14:25:32;7.30;;;5.60;;
4311;SDS011;2169;49.086;9.284;2023-04-16T14:27:59;10.53;;;6.60;;
4311;SDS011;2169;49.086;9.284;2023-04-16T14:30:26;21.70;;;7.77;;
4311;SDS011;2169;49.086;9.284;2023-04-16T14:32:53;7.90;;;7.10;;
4311;SDS011;2169;49.086;9.284;2023-04-16T14:35:19;9.97;;;6.77;;
4311;SDS011;2169;49.086;9.284;2023-04-16T14:37:46;10.93;;;6.60;;
4311;SDS011;2169;49.086;9.284;2023-04-16T14:40:13;14.37;;;8.67;;
4311;SDS011;2169;49.086;9.284;2023-04-16T14:42:42;12.73;;;8.97;;
4311;SDS011;2169;49.086;9.284;2023-04-16T14:45:08;9.00;;;6.13;;
4311;SDS011;2169;49.086;9.284;2023-04-16T14:47:36;9.27;;;6.33;;
4311;SDS011;2169;49.086;9.284;2023-04-16T14:50:09;7.93;;;5.87;;
4311;SDS011;2169;49.086;9.284;2023-04-16T14:52:37;11.37;;;7.40;;
4311;SDS011;2169;49.086;9.284;2023-04-16T14:55:03;8.33;;;6.73;;
4311;SDS011;2169;49.086;9.284;2023-04-16T14:57:31;14.07;;;7.97;;
4311;SDS011;2169;49.086;9.284;2023-04-16T14:59:59;11.17;;;6.67;;
4311;SDS011;2169;49.086;9.284;2023-04-16T15:02:32;7.47;;;6.60;;
4311;SDS011;2169;49.086;9.284;2023-04-16T15:04:59;17.00;;;9.43;;
4311;SDS011;2169;49.086;9.284;2023-04-16T15:07:26;49.83;;;15.50;;
4311;SDS011;2169;49.086;9.284;2023-04-16T15:09:53;11.67;;;9.20;;
4311;SDS011;2169;49.086;9.284;2023-04-16T15:12:20;10.47;;;7.23;;